createdAt,value
2022-11-24T00:01:32.809Z,100.00
2022-11-24T00:04:04.279Z,100.00
2022-11-24T00:06:36.805Z,100.00
2022-11-24T00:09:06.920Z,100.00
2022-11-24T00:11:38.702Z,100.00
2022-11-24T00:14:08.056Z,100.00
2022-11-24T00:16:39.216Z,100.00
2022-11-24T00:19:11.398Z,100.00
2022-11-24T00:21:41.835Z,100.00
2022-11-24T00:24:11.733Z,96.52
2022-11-24T00:26:40.864Z,98.24
2022-11-24T00:29:12.250Z,97.50
2022-11-24T00:31:43.702Z,93.03
2022-11-24T00:34:15.563Z,97.42
2022-11-24T00:36:44.816Z,99.85
2022-11-24T00:39:15.769Z,97.16
2022-11-24T00:41:45.252Z,96.07
2022-11-24T00:44:14.174Z,98.74
2022-11-24T00:46:44.779Z,98.67
2022-11-24T00:49:13.531Z,99.69
2022-11-24T00:51:42.603Z,100.00
2022-11-24T00:54:11.351Z,100.00
2022-11-24T00:56:40.329Z,99.26
2022-11-24T00:59:09.190Z,99.02
2022-11-24T01:01:38.219Z,100.00
2022-11-24T01:04:08.407Z,100.00
2022-11-24T01:06:38.111Z,100.00
2022-11-24T01:09:06.765Z,99.17
2022-11-24T01:11:51.020Z,98.08
2022-11-24T01:14:20.744Z,96.60
2022-11-24T01:16:50.371Z,97.87
2022-11-24T01:19:20.584Z,97.20
2022-11-24T01:21:50.045Z,99.59
2022-11-24T01:24:19.309Z,100.00
2022-11-24T01:26:48.355Z,100.00
2022-11-24T01:29:18.422Z,99.88
2022-11-24T01:31:47.399Z,95.62
2022-11-24T01:34:16.159Z,96.17
2022-11-24T01:36:46.634Z,98.36
2022-11-24T01:39:15.372Z,99.92
2022-11-24T01:41:44.508Z,100.00
2022-11-24T01:44:25.755Z,99.66
2022-11-24T01:47:00.291Z,99.51
2022-11-24T01:49:40.644Z,100.00
2022-11-24T01:52:18.828Z,100.00
2022-11-24T01:54:54.482Z,100.00
2022-11-24T01:57:31.455Z,100.00
2022-11-24T02:00:07.041Z,100.00
2022-11-24T02:02:46.875Z,100.00
2022-11-24T02:05:24.859Z,100.00
2022-11-24T02:07:58.214Z,100.00
2022-11-24T02:10:27.030Z,100.00
2022-11-24T02:13:00.135Z,100.00
2022-11-24T02:15:29.956Z,100.00
2022-11-24T02:18:00.403Z,100.00
2022-11-24T02:20:29.321Z,100.00
2022-11-24T02:23:11.711Z,100.00
2022-11-24T02:25:58.682Z,100.00
2022-11-24T02:28:31.980Z,100.00
2022-11-24T02:31:02.173Z,100.00
2022-11-24T02:33:31.758Z,100.00
2022-11-24T02:36:00.609Z,100.00
2022-11-24T02:38:32.460Z,100.00
2022-11-24T02:41:08.919Z,100.00
2022-11-24T02:43:44.774Z,100.00
2022-11-24T02:46:13.636Z,100.00
2022-11-24T02:48:42.631Z,100.00
2022-11-24T02:51:11.298Z,100.00
2022-11-24T02:53:40.320Z,100.00
2022-11-24T02:56:09.430Z,100.00
2022-11-24T02:58:39.928Z,100.00
2022-11-24T03:01:08.884Z,100.00
2022-11-24T03:03:38.625Z,100.00
2022-11-24T03:06:07.534Z,100.00
2022-11-24T03:08:36.500Z,100.00
2022-11-24T03:11:05.769Z,100.00
2022-11-24T03:13:34.786Z,100.00
2022-11-24T03:16:08.716Z,100.00
2022-11-24T03:18:37.828Z,100.00
2022-11-24T03:21:07.046Z,100.00
2022-11-24T03:23:36.489Z,100.00
2022-11-24T03:26:10.154Z,100.00
2022-11-24T03:28:39.645Z,100.00
2022-11-24T03:31:10.660Z,100.00
2022-11-24T03:33:40.259Z,100.00
2022-11-24T03:36:10.472Z,100.00
2022-11-24T03:38:39.413Z,97.46
2022-11-24T03:41:08.057Z,96.79
2022-11-24T03:43:43.150Z,96.54
2022-11-24T03:46:14.474Z,100.00
2022-11-24T03:48:43.555Z,100.00
2022-11-24T03:51:12.401Z,100.00
2022-11-24T03:53:41.409Z,100.00
2022-11-24T03:56:10.148Z,100.00
2022-11-24T03:58:39.129Z,100.00
2022-11-24T04:01:07.818Z,100.00
2022-11-24T04:03:38.090Z,100.00
2022-11-24T04:06:07.043Z,100.00
2022-11-24T04:08:35.940Z,100.00
2022-11-24T04:11:04.610Z,100.00
2022-11-24T04:13:32.640Z,100.00
2022-11-24T04:16:01.404Z,100.00
2022-11-24T04:18:30.358Z,100.00
2022-11-24T04:21:00.426Z,100.00
2022-11-24T04:23:29.423Z,100.00
2022-11-24T04:25:58.053Z,100.00
2022-11-24T04:28:27.050Z,100.00
2022-11-24T04:30:55.951Z,100.00
2022-11-24T04:33:24.971Z,100.00
2022-11-24T04:35:55.174Z,100.00
2022-11-24T04:39:24.477Z,100.00
2022-11-24T04:41:14.179Z,100.00
2022-11-24T04:43:43.091Z,100.00
2022-11-24T04:46:12.898Z,100.00
2022-11-24T04:48:42.933Z,100.00
2022-11-24T04:51:14.644Z,100.00
2022-11-24T04:53:44.933Z,100.00
2022-11-24T04:56:13.766Z,100.00
2022-11-24T04:58:42.729Z,100.00
2022-11-24T05:01:11.418Z,100.00
2022-11-24T05:03:40.364Z,100.00
2022-11-24T05:06:09.696Z,100.00
2022-11-24T05:08:38.671Z,100.00
2022-11-24T05:11:09.142Z,100.00
2022-11-24T05:13:38.123Z,100.00
2022-11-24T05:16:07.679Z,100.00
2022-11-24T05:18:37.959Z,100.00
2022-11-24T05:21:06.950Z,100.00
2022-11-24T05:23:35.918Z,100.00
2022-11-24T05:26:05.728Z,100.00
2022-11-24T05:28:36.257Z,100.00
2022-11-24T05:31:06.062Z,100.00
2022-11-24T05:33:35.228Z,100.00
2022-11-24T05:36:06.470Z,100.00
2022-11-24T05:38:36.787Z,100.00
2022-11-24T05:41:07.224Z,100.00
2022-11-24T05:43:37.476Z,100.00
2022-11-24T05:46:06.366Z,100.00
2022-11-24T05:48:35.239Z,100.00
2022-11-24T05:51:09.025Z,100.00
2022-11-24T05:53:38.356Z,100.00
2022-11-24T05:56:08.267Z,100.00
2022-11-24T05:58:38.467Z,100.00
2022-11-24T06:01:08.133Z,100.00
2022-11-24T06:03:37.005Z,100.00
2022-11-24T06:06:05.754Z,100.00
2022-11-24T06:08:35.619Z,100.00
2022-11-24T06:11:17.332Z,100.00
2022-11-24T06:13:49.352Z,100.00
2022-11-24T06:16:18.190Z,100.00
2022-11-24T06:18:47.169Z,100.00
2022-11-24T06:21:17.216Z,100.00
2022-11-24T06:23:49.092Z,100.00
2022-11-24T06:26:18.310Z,100.00
2022-11-24T06:28:48.735Z,100.00
2022-11-24T06:31:17.634Z,100.00
2022-11-24T06:33:46.953Z,100.00
2022-11-24T06:36:19.061Z,100.00
2022-11-24T06:38:47.991Z,100.00
2022-11-24T06:41:18.098Z,100.00
2022-11-24T06:43:48.867Z,100.00
2022-11-24T06:46:17.659Z,100.00
2022-11-24T06:48:47.155Z,100.00
2022-11-24T06:51:15.826Z,100.00
2022-11-24T06:53:44.717Z,100.00
2022-11-24T06:56:16.989Z,100.00
2022-11-24T06:58:50.247Z,100.00
2022-11-24T07:01:21.558Z,100.00
2022-11-24T07:03:51.828Z,100.00
2022-11-24T07:06:22.604Z,100.00
2022-11-24T07:08:52.353Z,100.00
2022-11-24T07:11:24.074Z,99.20
2022-11-24T07:30:10.935Z,96.81
2022-11-24T07:32:39.854Z,99.79
2022-11-24T07:35:09.391Z,99.59
2022-11-24T07:37:38.474Z,95.98
2022-11-24T07:40:08.911Z,95.01
2022-11-24T07:42:37.810Z,98.91
2022-11-24T07:45:07.761Z,93.53
2022-11-24T07:47:41.957Z,94.36
2022-11-24T07:50:12.605Z,92.21
2022-11-24T07:52:41.538Z,88.27
2022-11-24T07:55:11.350Z,88.82
2022-11-24T07:57:41.191Z,86.80
2022-11-24T08:00:12.167Z,90.23
2022-11-24T08:02:42.489Z,86.39
2022-11-24T08:05:11.143Z,88.15
2022-11-24T08:07:40.164Z,89.21
2022-11-24T08:10:10.018Z,90.48
2022-11-24T08:12:38.848Z,88.44
2022-11-24T08:15:11.332Z,91.13
2022-11-24T08:17:41.923Z,87.35
2022-11-24T08:20:12.406Z,92.87
2022-11-24T08:22:41.334Z,83.66
2022-11-24T08:25:10.731Z,87.50
2022-11-24T08:27:40.223Z,91.37
2022-11-24T08:30:10.981Z,93.76
2022-11-24T08:32:40.043Z,89.33
2022-11-24T08:35:15.195Z,87.87
2022-11-24T08:37:44.225Z,93.97
2022-11-24T08:40:14.225Z,92.64
2022-11-24T08:42:43.145Z,91.08
2022-11-24T08:45:20.927Z,94.97
2022-11-24T08:47:54.670Z,98.01
2022-11-24T08:50:26.409Z,99.10
2022-11-24T08:52:55.650Z,97.46
2022-11-24T08:55:24.253Z,99.05
2022-11-24T08:57:53.177Z,92.75
2022-11-24T09:00:23.825Z,92.04
2022-11-24T09:02:57.851Z,98.00
2022-11-24T09:05:54.956Z,100.00
2022-11-24T09:08:16.721Z,94.93
2022-11-24T09:10:45.381Z,89.53
2022-11-24T09:13:14.274Z,90.73
2022-11-24T09:15:42.887Z,90.31
2022-11-24T09:18:11.775Z,93.39
2022-11-24T09:20:41.802Z,96.26
2022-11-24T09:23:10.859Z,95.05
2022-11-24T09:25:39.438Z,87.33
2022-11-24T09:28:08.262Z,90.96
2022-11-24T09:30:37.026Z,91.66
2022-11-24T09:33:06.120Z,94.06
2022-11-24T09:35:38.380Z,96.82
2022-11-24T09:38:08.582Z,96.87
2022-11-24T09:40:37.350Z,95.84
2022-11-24T09:43:17.859Z,99.08
2022-11-24T09:46:05.452Z,92.15
2022-11-24T09:48:41.846Z,90.66
2022-11-24T09:51:14.299Z,90.01
2022-11-24T09:53:52.072Z,91.31
2022-11-24T09:56:24.176Z,96.87
2022-11-24T09:59:00.255Z,94.37
2022-11-24T10:01:34.571Z,88.98
2022-11-24T10:04:06.811Z,88.71
2022-11-24T10:06:45.685Z,88.78
2022-11-24T10:09:40.232Z,86.54
2022-11-24T10:12:28.906Z,89.61
2022-11-24T10:15:25.647Z,90.67
2022-11-24T10:18:49.460Z,86.32
2022-11-24T10:21:52.928Z,83.99
2022-11-24T10:24:56.221Z,83.04
2022-11-24T10:27:35.635Z,90.60
2022-11-24T10:30:14.621Z,93.62
2022-11-24T10:32:49.035Z,88.43
2022-11-24T10:35:22.528Z,93.03
2022-11-24T10:38:07.633Z,95.42
2022-11-24T10:40:57.130Z,90.25
2022-11-24T10:43:29.408Z,87.69
2022-11-24T10:46:11.535Z,86.61
2022-11-24T10:48:48.989Z,87.66
2022-11-24T10:51:45.460Z,87.84
2022-11-24T10:54:18.986Z,91.41
2022-11-24T10:56:53.424Z,93.73
2022-11-24T10:59:33.244Z,87.42
2022-11-24T11:02:03.228Z,92.51
2022-11-24T11:04:35.289Z,85.55
2022-11-24T11:07:20.584Z,91.00
2022-11-24T11:09:50.259Z,92.13
2022-11-24T11:12:45.060Z,89.73
2022-11-24T11:15:26.495Z,90.84
2022-11-24T11:18:00.248Z,95.14
2022-11-24T11:20:33.578Z,97.03
2022-11-24T11:23:16.923Z,98.42
2022-11-24T11:25:45.801Z,100.00
2022-11-24T11:28:29.003Z,96.39
2022-11-24T11:31:21.087Z,90.44
2022-11-24T11:34:06.275Z,91.32
2022-11-24T11:36:42.182Z,86.91
2022-11-24T11:39:24.934Z,93.45
2022-11-24T11:42:08.642Z,91.35
2022-11-24T11:44:45.567Z,92.27
2022-11-24T11:47:26.291Z,85.25
2022-11-24T11:49:55.166Z,86.69
2022-11-24T11:52:58.959Z,89.15
2022-11-24T11:56:00.630Z,94.85
2022-11-24T11:59:29.459Z,97.57
2022-11-24T12:02:31.160Z,98.42
2022-11-24T12:05:05.077Z,99.39
2022-11-24T12:07:54.217Z,99.71
2022-11-24T12:10:35.170Z,100.00
2022-11-24T12:13:29.137Z,99.58
2022-11-24T12:16:12.621Z,95.79
2022-11-24T12:18:58.610Z,96.76
2022-11-24T12:21:40.262Z,94.40
2022-11-24T12:24:19.228Z,98.81
2022-11-24T12:26:55.364Z,98.02
2022-11-24T12:29:59.940Z,100.00
2022-11-24T12:33:12.885Z,95.93
2022-11-24T12:35:46.774Z,98.20
2022-11-24T12:38:34.037Z,98.47
2022-11-24T12:41:41.223Z,100.00
2022-11-24T12:44:35.558Z,95.38
2022-11-24T12:47:16.282Z,97.14
2022-11-24T12:49:59.451Z,99.34
2022-11-24T12:52:36.534Z,100.00
2022-11-24T12:55:13.849Z,100.00
2022-11-24T12:57:51.644Z,100.00
2022-11-24T13:00:24.403Z,100.00
2022-11-24T13:03:19.829Z,100.00
2022-11-24T13:05:59.520Z,100.00
2022-11-24T13:08:31.323Z,100.00
2022-11-24T13:11:43.369Z,100.00
2022-11-24T13:14:20.295Z,100.00
2022-11-24T13:17:27.800Z,100.00
2022-11-24T13:19:48.025Z,97.92
2022-11-24T13:22:25.485Z,98.41
2022-11-24T13:25:18.530Z,98.69
2022-11-24T13:27:52.342Z,99.86
2022-11-24T13:31:09.141Z,97.23
2022-11-24T13:33:43.011Z,98.81
2022-11-24T13:36:35.217Z,99.41
2022-11-24T13:39:19.450Z,99.31
2022-11-24T13:42:42.547Z,100.00
2022-11-24T13:45:03.704Z,97.56
2022-11-24T13:47:40.112Z,96.34
2022-11-24T13:50:46.790Z,94.07
2022-11-24T13:53:28.904Z,95.91
2022-11-24T13:56:01.239Z,96.10
2022-11-24T13:58:38.416Z,94.02
2022-11-24T14:01:21.268Z,97.12
2022-11-24T14:07:07.920Z,93.27
2022-11-24T14:09:44.510Z,97.08
2022-11-24T14:12:20.235Z,98.86
2022-11-24T14:14:52.003Z,100.00
2022-11-24T14:17:23.681Z,99.51
2022-11-24T14:19:55.229Z,98.97
2022-11-24T14:22:28.548Z,100.00
2022-11-24T14:24:59.459Z,100.00
2022-11-24T14:27:33.359Z,100.00
2022-11-24T14:30:17.782Z,97.62
2022-11-24T14:32:56.353Z,97.57
2022-11-24T14:35:28.738Z,94.40
2022-11-24T14:37:58.570Z,93.94
2022-11-24T14:40:52.506Z,95.53
2022-11-24T14:43:28.817Z,93.12
2022-11-24T14:46:03.670Z,90.34
2022-11-24T14:48:37.392Z,95.35
2022-11-24T14:51:14.252Z,94.37
2022-11-24T14:53:45.256Z,94.28
2022-11-24T14:56:26.682Z,98.82
2022-11-24T14:58:57.478Z,100.00
2022-11-24T15:01:36.112Z,100.00
2022-11-24T15:07:19.719Z,91.52
2022-11-24T15:09:57.890Z,91.90
2022-11-24T15:12:30.811Z,90.43
2022-11-24T15:15:04.152Z,92.95
2022-11-24T15:17:34.725Z,93.19
2022-11-24T15:20:10.863Z,90.55
2022-11-24T15:22:43.527Z,91.06
2022-11-24T15:25:37.060Z,91.00
2022-11-24T15:28:05.773Z,90.13
2022-11-24T15:30:37.560Z,92.75
2022-11-24T15:33:16.953Z,93.58
2022-11-24T15:35:46.615Z,93.49
2022-11-24T15:38:16.313Z,93.51
2022-11-24T15:40:48.042Z,94.41
2022-11-24T15:43:28.659Z,96.90
2022-11-24T15:45:57.828Z,98.33
2022-11-24T15:48:28.822Z,97.06
2022-11-24T15:50:59.909Z,91.63
2022-11-24T15:53:35.188Z,94.31
2022-11-24T15:56:08.655Z,92.33
2022-11-24T15:58:37.321Z,95.37
2022-11-24T16:01:06.302Z,91.51
2022-11-24T16:03:46.821Z,96.56
2022-11-24T16:06:24.634Z,99.38
2022-11-24T16:08:54.275Z,96.74
2022-11-24T16:11:23.680Z,90.25
2022-11-24T16:13:53.950Z,93.56
2022-11-24T16:16:25.624Z,91.34
2022-11-24T16:18:55.620Z,92.50
2022-11-24T16:21:24.484Z,95.28
2022-11-24T16:23:53.156Z,96.63
2022-11-24T16:26:22.163Z,98.38
2022-11-24T16:28:50.723Z,98.19
2022-11-24T16:31:19.939Z,95.15
2022-11-24T16:33:48.944Z,93.81
2022-11-24T16:36:19.166Z,91.49
2022-11-24T16:38:47.902Z,91.19
2022-11-24T16:41:17.251Z,83.53
2022-11-24T16:43:46.286Z,83.36
2022-11-24T16:46:21.895Z,86.75
2022-11-24T16:48:53.566Z,84.45
2022-11-24T16:51:27.775Z,90.26
2022-11-24T16:54:02.675Z,88.37
2022-11-24T16:56:32.854Z,92.35
2022-11-24T16:59:02.016Z,96.69
2022-11-24T17:01:32.831Z,98.78
2022-11-24T17:04:01.784Z,94.91
2022-11-24T17:06:34.627Z,92.66
2022-11-24T17:09:03.222Z,96.40
2022-11-24T17:11:32.268Z,97.94
2022-11-24T17:14:01.000Z,92.08
2022-11-24T17:16:30.854Z,87.90
2022-11-24T17:18:59.860Z,90.71
2022-11-24T17:21:32.177Z,95.05
2022-11-24T17:24:05.332Z,93.27
2022-11-24T17:26:35.337Z,93.58
2022-11-24T17:29:04.355Z,97.70
2022-11-24T17:31:35.880Z,99.46
2022-11-24T17:34:07.316Z,98.99
2022-11-24T17:36:37.577Z,98.43
2022-11-24T17:39:08.070Z,94.11
2022-11-24T17:41:37.180Z,87.71
2022-11-24T17:44:08.099Z,90.28
2022-11-24T17:46:37.707Z,94.98
2022-11-24T17:49:08.410Z,89.08
2022-11-24T17:51:38.793Z,92.10
2022-11-24T17:54:24.623Z,89.13
2022-11-24T17:56:56.546Z,90.82
2022-11-24T17:59:25.137Z,93.41
2022-11-24T18:01:54.079Z,87.78
2022-11-24T18:04:22.653Z,88.35
2022-11-24T18:06:52.988Z,92.21
2022-11-24T18:09:21.689Z,95.32
2022-11-24T18:11:52.088Z,96.03
2022-11-24T18:14:20.717Z,97.65
2022-11-24T18:16:50.181Z,94.06
2022-11-24T18:19:18.804Z,94.86
2022-11-24T18:21:48.033Z,89.55
2022-11-24T18:24:22.663Z,90.76
2022-11-24T18:26:52.930Z,95.29
2022-11-24T18:29:21.983Z,97.83
2022-11-24T18:31:51.058Z,96.58
2022-11-24T18:34:19.679Z,96.27
2022-11-24T18:36:52.162Z,94.23
2022-11-24T18:39:22.282Z,94.02
2022-11-24T18:41:51.521Z,90.64
2022-11-24T18:44:20.334Z,92.92
2022-11-24T18:46:50.301Z,94.17
2022-11-24T18:49:19.019Z,94.88
2022-11-24T18:51:47.848Z,87.77
2022-11-24T18:54:16.446Z,91.95
2022-11-24T18:56:46.724Z,89.34
2022-11-24T18:59:15.325Z,90.06
2022-11-24T19:01:44.288Z,91.30
2022-11-24T19:04:15.288Z,91.74
2022-11-24T19:06:44.660Z,90.12
2022-11-24T19:09:17.354Z,89.46
2022-11-24T19:11:48.630Z,83.20
2022-11-24T19:14:19.560Z,84.54
2022-11-24T19:16:48.708Z,86.53
2022-11-24T19:19:18.132Z,83.67
2022-11-24T19:21:47.069Z,85.26
2022-11-24T19:24:15.686Z,84.91
2022-11-24T19:26:44.584Z,84.29
2022-11-24T19:29:14.473Z,83.76
2022-11-24T19:31:44.069Z,84.54
2022-11-24T19:34:12.845Z,84.65
2022-11-24T19:36:43.255Z,85.48
2022-11-24T19:39:16.773Z,86.33
2022-11-24T19:41:45.821Z,85.17
2022-11-24T19:44:15.812Z,86.66
2022-11-24T19:46:44.720Z,91.67
2022-11-24T19:49:13.307Z,87.77
2022-11-24T19:51:42.424Z,86.06
2022-11-24T19:54:13.918Z,86.70
2022-11-24T19:56:42.932Z,86.87
2022-11-24T19:59:15.879Z,86.44
2022-11-24T20:01:44.856Z,87.65
2022-11-24T20:04:16.449Z,89.42
2022-11-24T20:06:48.058Z,85.16
2022-11-24T20:09:19.019Z,83.88
2022-11-24T20:11:49.157Z,86.15
2022-11-24T20:14:20.090Z,88.21
2022-11-24T20:16:49.518Z,86.66
2022-11-24T20:19:19.648Z,91.64
2022-11-24T20:21:50.092Z,90.27
2022-11-24T20:24:21.054Z,94.57
2022-11-24T20:26:53.660Z,97.98
2022-11-24T20:29:23.969Z,91.92
2022-11-24T20:31:56.720Z,89.05
2022-11-24T20:34:26.373Z,89.09
2022-11-24T20:36:55.301Z,86.30
2022-11-24T20:39:27.854Z,88.48
2022-11-24T20:41:57.755Z,93.72
2022-11-24T20:44:29.831Z,86.60
2022-11-24T20:47:01.286Z,88.92
2022-11-24T20:49:30.213Z,91.88
2022-11-24T20:51:59.142Z,95.42
2022-11-24T20:54:28.164Z,94.87
2022-11-24T20:56:57.024Z,93.08
2022-11-24T20:59:27.633Z,92.65
2022-11-24T21:01:57.154Z,91.60
2022-11-24T21:04:28.111Z,91.09
2022-11-24T21:06:57.396Z,90.53
2022-11-24T21:09:27.295Z,95.86
2022-11-24T21:11:56.309Z,94.67
2022-11-24T21:14:25.498Z,96.12
2022-11-24T21:16:55.747Z,95.17
2022-11-24T21:19:24.563Z,92.61
2022-11-24T21:21:53.464Z,91.29
2022-11-24T21:24:22.585Z,94.97
2022-11-24T21:26:52.814Z,98.04
2022-11-24T21:29:23.606Z,96.04
2022-11-24T21:31:53.398Z,97.29
2022-11-24T21:34:23.407Z,97.63
2022-11-24T21:36:52.272Z,100.00
2022-11-24T21:39:20.919Z,92.50
2022-11-24T21:41:49.809Z,95.12
2022-11-24T21:44:18.515Z,94.53
2022-11-24T21:46:52.627Z,97.73
2022-11-24T21:49:25.774Z,100.00
2022-11-24T21:51:55.966Z,96.73
2022-11-24T21:54:25.060Z,93.22
2022-11-24T21:56:55.559Z,95.53
2022-11-24T21:59:24.380Z,94.60
2022-11-24T22:01:53.946Z,99.68
2022-11-24T22:04:22.663Z,90.57
2022-11-24T22:06:54.088Z,85.58
2022-11-24T22:09:22.753Z,87.55
2022-11-24T22:11:52.624Z,85.66
2022-11-24T22:14:21.187Z,88.74
2022-11-24T22:16:50.229Z,86.25
2022-11-24T22:19:19.070Z,84.71
2022-11-24T22:21:48.057Z,87.79
2022-11-24T22:24:20.629Z,89.76
2022-11-24T22:26:52.370Z,87.03
2022-11-24T22:29:21.100Z,84.68
2022-11-24T22:31:50.255Z,87.47
2022-11-24T22:34:18.856Z,87.58
2022-11-24T22:36:47.738Z,87.93
2022-11-24T22:39:17.756Z,88.37
2022-11-24T22:41:46.811Z,90.43
2022-11-24T22:44:15.338Z,87.23
2022-11-24T22:46:44.199Z,88.50
2022-11-24T22:49:12.929Z,87.95
2022-11-24T22:51:41.788Z,92.16
2022-11-24T22:54:14.431Z,90.83
2022-11-24T22:56:44.738Z,93.46
2022-11-24T22:59:13.324Z,88.88
2022-11-24T23:01:42.156Z,89.51
2022-11-24T23:04:10.849Z,92.58
2022-11-24T23:06:40.021Z,87.54
2022-11-24T23:09:12.670Z,91.60
2022-11-24T23:11:44.199Z,96.62
2022-11-24T23:14:16.440Z,92.40
2022-11-24T23:16:45.440Z,88.03
2022-11-24T23:19:14.251Z,94.63
2022-11-24T23:21:43.133Z,92.47
2022-11-24T23:24:12.281Z,91.59
2022-11-24T23:26:44.115Z,93.98
2022-11-24T23:29:12.955Z,93.95
2022-11-24T23:31:41.825Z,90.06
2022-11-24T23:34:11.045Z,92.47
2022-11-24T23:36:40.210Z,87.37
2022-11-24T23:39:13.469Z,90.38
2022-11-24T23:41:43.940Z,89.63
2022-11-24T23:44:12.754Z,90.43
2022-11-24T23:46:41.547Z,86.41
2022-11-24T23:49:10.519Z,81.49
2022-11-24T23:51:42.000Z,82.24
2022-11-24T23:54:11.043Z,86.24
2022-11-24T23:56:40.011Z,90.94
2022-11-24T23:59:12.964Z,91.28
